Observation data for Morton on 06/25/2019      Previous  Date  Next       Current Mesonet Observations  Soil Data  Daily Summary Page  Observations in Plain Language
KMNS 250500Z 14013G18KT 23/17 A2999 RMK A01 T02320174  RH  073%=      5-min Rain = 0
KMNS 250505Z 13015KT 23/18 A2999 RMK A01 T02340179  RH  075%=      5-min Rain = 0
KMNS 250510Z 14014G20KT 23/18 A2999 RMK A01 T02340181  RH  076%=      5-min Rain = 0
KMNS 250515Z 14014G19KT 23/18 A2999 RMK A01 T02340182  RH  076%=      5-min Rain = 0
KMNS 250520Z 14014G20KT 23/18 A2999 RMK A01 T02330183  RH  077%=      5-min Rain = 0
KMNS 250525Z 14016KT 23/18 A2999 RMK A01 T02330184  RH  078%=      5-min Rain = 0
KMNS 250530Z 14016KT 23/19 A2999 RMK A01 T02340186  RH  079%=      5-min Rain = 0
KMNS 250535Z 14017G22KT 23/19 A2999 RMK A01 T02340186  RH  079%=      5-min Rain = 0
KMNS 250540Z 15015KT 23/19 A2999 RMK A01 T02340186  RH  078%=      5-min Rain = 0
KMNS 250545Z 15015G20KT 23/19 A2999 RMK A01 T02340185  RH  078%=      5-min Rain = 0
KMNS 250550Z 16017G24KT 24/18 A2999 RMK A01 T02350183  RH  076%=      5-min Rain = 0
KMNS 250555Z 15017G25KT 23/18 A2999 RMK A01 T02320178  RH  076%=      5-min Rain = 0
KMNS 250600Z 15018G25KT 23/17 A2999 RMK A01 T02300174  RH  074%=      5-min Rain = 0
KMNS 250605Z 16014G21KT 23/17 A2999 RMK A01 T02280174  RH  075%=      5-min Rain = 0
KMNS 250610Z 16015G21KT 23/17 A30 RMK A01 T02260169  RH  074%=      5-min Rain = 0
KMNS 250615Z 15015G20KT 22/17 A30 RMK A01 T02240166  RH  073%=      5-min Rain = 0
KMNS 250620Z 16012KT 22/17 A30 RMK A01 T02220165  RH  073%=      5-min Rain = 0
KMNS 250625Z 17011G16KT 22/16 A30 RMK A01 T02210163  RH  073%=      5-min Rain = 0
KMNS 250630Z 16012KT 22/16 A2999 RMK A01 T02190158  RH  071%=      5-min Rain = 0
KMNS 250635Z 16013G23KT 22/15 A2999 RMK A01 T02180152  RH  069%=      5-min Rain = 0
KMNS 250640Z 16011KT 22/15 A2999 RMK A01 T02170148  RH  068%=      5-min Rain = 0
KMNS 250645Z 16011G16KT 22/15 A2999 RMK A01 T02160145  RH  067%=      5-min Rain = 0
KMNS 250650Z 16011G16KT 22/14 A2999 RMK A01 T02150142  RH  066%=      5-min Rain = 0
KMNS 250655Z 16010KT 21/14 A2999 RMK A01 T02130139  RH  065%=      5-min Rain = 0
KMNS 250700Z 16009KT 21/14 A2999 RMK A01 T02110136  RH  065%=      5-min Rain = 0
KMNS 250705Z 16009KT 21/13 A2999 RMK A01 T02080132  RH  064%=      5-min Rain = 0
KMNS 250710Z 17009KT 21/13 A2999 RMK A01 T02070130  RH  064%=      5-min Rain = 0
KMNS 250715Z 17008KT 21/13 A2999 RMK A01 T02050128  RH  064%=      5-min Rain = 0
KMNS 250720Z 17007KT 20/13 A2998 RMK A01 T02020126  RH  064%=      5-min Rain = 0
KMNS 250725Z 17007KT 20/13 A2998 RMK A01 T02000125  RH  064%=      5-min Rain = 0
KMNS 250730Z 17006KT 20/12 A2998 RMK A01 T01990124  RH  064%=      5-min Rain = 0
KMNS 250735Z 17006KT 20/12 A2998 RMK A01 T01980124  RH  065%=      5-min Rain = 0
KMNS 250740Z 16005KT 20/12 A2998 RMK A01 T01960123  RH  065%=      5-min Rain = 0
KMNS 250745Z 17005KT 19/12 A2998 RMK A01 T01940123  RH  066%=      5-min Rain = 0
KMNS 250750Z 17006KT 19/12 A2998 RMK A01 T01910123  RH  067%=      5-min Rain = 0
KMNS 250755Z 18008KT 19/12 A2998 RMK A01 T01890123  RH  068%=      5-min Rain = 0
KMNS 250800Z 18008KT 19/12 A2998 RMK A01 T01890123  RH  068%=      5-min Rain = 0
KMNS 250805Z 17008KT 19/12 A2998 RMK A01 T01880123  RH  068%=      5-min Rain = 0
KMNS 250810Z 17007KT 19/12 A2998 RMK A01 T01890122  RH  068%=      5-min Rain = 0
KMNS 250815Z 17007KT 19/12 A2998 RMK A01 T01880122  RH  068%=      5-min Rain = 0
KMNS 250820Z 18008KT 19/12 A2998 RMK A01 T01860122  RH  069%=      5-min Rain = 0
KMNS 250825Z 18008KT 19/12 A2998 RMK A01 T01860123  RH  069%=      5-min Rain = 0
KMNS 250830Z 17008KT 19/12 A2998 RMK A01 T01860123  RH  069%=      5-min Rain = 0
KMNS 250835Z 17007KT 19/12 A2999 RMK A01 T01850123  RH  070%=      5-min Rain = 0
KMNS 250840Z 18006KT 18/12 A2998 RMK A01 T01830123  RH  071%=      5-min Rain = 0
KMNS 250845Z 17006KT 18/12 A2998 RMK A01 T01820123  RH  071%=      5-min Rain = 0
KMNS 250850Z 17006KT 18/12 A2998 RMK A01 T01830123  RH  071%=      5-min Rain = 0
KMNS 250855Z 17005KT 18/12 A2998 RMK A01 T01800123  RH  072%=      5-min Rain = 0
KMNS 250900Z 17005KT 18/12 A2998 RMK A01 T01780123  RH  073%=      5-min Rain = 0
KMNS 250905Z 18005KT 18/12 A2998 RMK A01 T01770123  RH  073%=      5-min Rain = 0
KMNS 250910Z 18005KT 18/12 A2998 RMK A01 T01750123  RH  074%=      5-min Rain = 0
KMNS 250915Z 19005KT 17/12 A2999 RMK A01 T01730124  RH  076%=      5-min Rain = 0
KMNS 250920Z 20005KT 17/12 A2999 RMK A01 T01710124  RH  077%=      5-min Rain = 0
KMNS 250925Z 19005KT 17/12 A2999 RMK A01 T01700124  RH  077%=      5-min Rain = 0
KMNS 250930Z 19005KT 17/12 A2999 RMK A01 T01670123  RH  078%=      5-min Rain = 0
KMNS 250935Z 20005KT 17/13 A2999 RMK A01 T01680125  RH  079%=      5-min Rain = 0
KMNS 250940Z 19006KT 17/13 A2999 RMK A01 T01700126  RH  078%=      5-min Rain = 0
KMNS 250945Z 19006KT 17/13 A2999 RMK A01 T01690126  RH  079%=      5-min Rain = 0
KMNS 250950Z 19006KT 17/13 A30 RMK A01 T01690126  RH  079%=      5-min Rain = 0
KMNS 250955Z 18006KT 17/13 A30 RMK A01 T01670126  RH  080%=      5-min Rain = 0
KMNS 251000Z 18006KT 17/13 A30 RMK A01 T01680126  RH  079%=      5-min Rain = 0
KMNS 251005Z 18006KT 17/13 A30 RMK A01 T01680126  RH  079%=      5-min Rain = 0
KMNS 251010Z 18006KT 17/13 A3001 RMK A01 T01680126  RH  079%=      5-min Rain = 0
KMNS 251015Z 19006KT 17/13 A3001 RMK A01 T01680125  RH  079%=      5-min Rain = 0
KMNS 251020Z 19006KT 17/13 A3001 RMK A01 T01670125  RH  079%=      5-min Rain = 0
KMNS 251025Z 19007KT 17/12 A3001 RMK A01 T01660124  RH  079%=      5-min Rain = 0
KMNS 251030Z 20007KT 17/12 A3001 RMK A01 T01650124  RH  080%=      5-min Rain = 0
KMNS 251035Z 21007KT 17/12 A3001 RMK A01 T01660124  RH  080%=      5-min Rain = 0
KMNS 251040Z 20008KT 17/12 A30 RMK A01 T01660123  RH  078%=      5-min Rain = 0
KMNS 251045Z 20007KT 16/12 A3001 RMK A01 T01640122  RH  079%=      5-min Rain = 0
KMNS 251050Z 20005KT 16/12 A3001 RMK A01 T01620121  RH  080%=      5-min Rain = 0
KMNS 251055Z 20005KT 16/12 A3001 RMK A01 T01590120  RH  081%=      5-min Rain = 0
KMNS 251100Z 20005KT 16/12 A3001 RMK A01 T01570120  RH  082%=      5-min Rain = 0
KMNS 251105Z 20005KT 16/12 A3001 RMK A01 T01560120  RH  082%=      5-min Rain = 0
KMNS 251110Z 20005KT 16/12 A3001 RMK A01 T01570120  RH  082%=      5-min Rain = 0
KMNS 251115Z 20005KT 16/12 A3001 RMK A01 T01570119  RH  081%=      5-min Rain = 0
KMNS 251120Z 21006KT 16/12 A3001 RMK A01 T01610120  RH  080%=      5-min Rain = 0
KMNS 251125Z 21006KT 17/12 A3001 RMK A01 T01650119  RH  077%=      5-min Rain = 0
KMNS 251130Z 21006KT 17/12 A3001 RMK A01 T01670117  RH  075%=      5-min Rain = 0
KMNS 251135Z 22007KT 17/12 A3001 RMK A01 T01690117  RH  074%=      5-min Rain = 0
KMNS 251140Z 22007KT 17/12 A3001 RMK A01 T01720116  RH  072%=      5-min Rain = 0
KMNS 251145Z 22005KT 17/12 A3002 RMK A01 T01730115  RH  071%=      5-min Rain = 0
KMNS 251150Z 22005KT 17/12 A3002 RMK A01 T01730115  RH  071%=      5-min Rain = 0
KMNS 251155Z 22005KT 17/12 A3002 RMK A01 T01730115  RH  071%=      5-min Rain = 0
KMNS 251200Z 22004KT 17/12 A3002 RMK A01 T01720115  RH  071%=      5-min Rain = 0
KMNS 251205Z 22003KT 17/12 A3002 RMK A01 T01720115  RH  072%=      5-min Rain = 0
KMNS 251210Z 23003KT 17/12 A3002 RMK A01 T01730116  RH  072%=      5-min Rain = 0
KMNS 251215Z 23003KT 18/12 A3002 RMK A01 T01750117  RH  071%=      5-min Rain = 0
KMNS 251220Z 24002KT 17/12 A3002 RMK A01 T01740117  RH  072%=      5-min Rain = 0
KMNS 251225Z 31002KT 17/12 A3003 RMK A01 T01720118  RH  073%=      5-min Rain = 0
KMNS 251230Z 34003KT 17/12 A3003 RMK A01 T01720118  RH  074%=      5-min Rain = 0
KMNS 251235Z 35003KT 18/12 A3003 RMK A01 T01750120  RH  073%=      5-min Rain = 0
KMNS 251240Z 00002KT 18/12 A3003 RMK A01 T01800122  RH  071%=      5-min Rain = 0
KMNS 251245Z 36002KT 18/12 A3004 RMK A01 T01840121  RH  070%=      5-min Rain = 0
KMNS 251250Z 02000KT 19/12 A3004 RMK A01 T01900122  RH  067%=      5-min Rain = 0
KMNS 251255Z 21000KT 20/12 A3004 RMK A01 T01970122  RH  064%=      5-min Rain = 0
KMNS 251300Z 21002KT 19/12 A3004 RMK A01 T01940120  RH  064%=      5-min Rain = 0
KMNS 251305Z 19002KT 19/12 A3004 RMK A01 T01930121  RH  065%=      5-min Rain = 0
KMNS 251310Z 16002KT 20/12 A3004 RMK A01 T01970123  RH  065%=      5-min Rain = 0
KMNS 251315Z 12002KT 20/12 A3004 RMK A01 T02010123  RH  063%=      5-min Rain = 0
KMNS 251320Z 11002KT 20/12 A3005 RMK A01 T02010123  RH  063%=      5-min Rain = 0
KMNS 251325Z 14002KT 20/12 A3005 RMK A01 T02040124  RH  063%=      5-min Rain = 0
KMNS 251330Z 17003KT 21/13 A3005 RMK A01 T02060126  RH  062%=      5-min Rain = 0
KMNS 251335Z 19005KT 21/13 A3004 RMK A01 T02070126  RH  062%=      5-min Rain = 0
KMNS 251340Z 21006KT 21/13 A3004 RMK A01 T02120130  RH  062%=      5-min Rain = 0
KMNS 251345Z 21009G14KT 22/13 A3004 RMK A01 T02170133  RH  061%=      5-min Rain = 0
KMNS 251350Z 21010KT 22/14 A3004 RMK A01 T02230136  RH  060%=      5-min Rain = 0
KMNS 251355Z 20012KT 23/14 A3004 RMK A01 T02250137  RH  060%=      5-min Rain = 0
KMNS 251400Z 21012KT 23/14 A3004 RMK A01 T02270139  RH  060%=      5-min Rain = 0
KMNS 251405Z 21013KT 23/14 A3004 RMK A01 T02280139  RH  060%=      5-min Rain = 0
KMNS 251410Z 20013KT 23/14 A3004 RMK A01 T02300140  RH  059%=      5-min Rain = 0
KMNS 251415Z 21014KT 23/14 A3005 RMK A01 T02320141  RH  059%=      5-min Rain = 0
KMNS 251420Z 20013G18KT 24/14 A3005 RMK A01 T02370143  RH  058%=      5-min Rain = 0
KMNS 251425Z 20014KT 24/14 A3005 RMK A01 T02370142  RH  058%=      5-min Rain = 0
KMNS 251430Z 20012KT 24/14 A3005 RMK A01 T02390142  RH  057%=      5-min Rain = 0
KMNS 251435Z 20015KT 24/14 A3005 RMK A01 T02400140  RH  056%=      5-min Rain = 0
KMNS 251440Z 20014KT 24/14 A3005 RMK A01 T02440141  RH  055%=      5-min Rain = 0
KMNS 251445Z 20015KT 24/14 A3005 RMK A01 T02440140  RH  054%=      5-min Rain = 0
KMNS 251450Z 20015KT 25/14 A3005 RMK A01 T02470139  RH  053%=      5-min Rain = 0
KMNS 251455Z 20015G20KT 25/14 A3005 RMK A01 T02490138  RH  052%=      5-min Rain = 0
KMNS 251500Z 20014G19KT 25/14 A3005 RMK A01 T02510137  RH  051%=      5-min Rain = 0
KMNS 251505Z 20015KT 25/14 A3005 RMK A01 T02520136  RH  051%=      5-min Rain = 0
KMNS 251510Z 20014KT 25/14 A3004 RMK A01 T02540137  RH  050%=      5-min Rain = 0
KMNS 251515Z 20012KT 26/14 A3004 RMK A01 T02580139  RH  050%=      5-min Rain = 0
KMNS 251520Z 19011KT 26/14 A3004 RMK A01 T02630142  RH  049%=      5-min Rain = 0
KMNS 251525Z 19012KT 27/14 A3004 RMK A01 T02660141  RH  048%=      5-min Rain = 0
KMNS 251530Z 20013G19KT 27/14 A3004 RMK A01 T02660139  RH  048%=      5-min Rain = 0
KMNS 251535Z 20012G17KT 27/14 A3004 RMK A01 T02680140  RH  047%=      5-min Rain = 0
KMNS 251540Z 20012KT 27/14 A3004 RMK A01 T02680139  RH  047%=      5-min Rain = 0
KMNS 251545Z 20013KT 27/14 A3004 RMK A01 T02730138  RH  046%=      5-min Rain = 0
KMNS 251550Z 21012KT 28/14 A3004 RMK A01 T02750137  RH  045%=      5-min Rain = 0
KMNS 251555Z 19013KT 28/14 A3004 RMK A01 T02750137  RH  044%=      5-min Rain = 0
KMNS 251600Z 20010KT 28/14 A3004 RMK A01 T02820139  RH  043%=      5-min Rain = 0
KMNS 251605Z 21012KT 28/14 A3004 RMK A01 T02810136  RH  043%=      5-min Rain = 0
KMNS 251610Z 21012KT 28/13 A3004 RMK A01 T02830133  RH  041%=      5-min Rain = 0
KMNS 251615Z 19011KT 29/14 A3004 RMK A01 T02890136  RH  041%=      5-min Rain = 0
KMNS 251620Z 20011KT 29/13 A3004 RMK A01 T02880134  RH  040%=      5-min Rain = 0
KMNS 251625Z 21011KT 29/13 A3004 RMK A01 T02910132  RH  039%=      5-min Rain = 0
KMNS 251630Z 20010KT 30/13 A3004 RMK A01 T02960134  RH  039%=      5-min Rain = 0
KMNS 251635Z 21011KT 30/13 A3004 RMK A01 T02980130  RH  037%=      5-min Rain = 0
KMNS 251640Z 20010G16KT 30/13 A3004 RMK A01 T02990131  RH  037%=      5-min Rain = 0
KMNS 251645Z 21011KT 30/13 A3003 RMK A01 T03000129  RH  036%=      5-min Rain = 0
KMNS 251650Z 21011KT 30/13 A3003 RMK A01 T03030125  RH  035%=      5-min Rain = 0
KMNS 251655Z 22011G16KT 31/12 A3003 RMK A01 T03090123  RH  033%=      5-min Rain = 0
KMNS 251700Z 20009G16KT 31/13 A3003 RMK A01 T03140129  RH  034%=      5-min Rain = 0
KMNS 251705Z 21012KT 31/12 A3003 RMK A01 T03120120  RH  032%=      5-min Rain = 0
KMNS 251710Z 21011G17KT 32/12 A3003 RMK A01 T03150118  RH  031%=      5-min Rain = 0
KMNS 251715Z 19011KT 32/12 A3003 RMK A01 T03200117  RH  030%=      5-min Rain = 0
KMNS 251720Z 19011G16KT 32/12 A3003 RMK A01 T03220116  RH  029%=      5-min Rain = 0
KMNS 251725Z 20012KT 32/11 A3003 RMK A01 T03230105  RH  027%=      5-min Rain = 0
KMNS 251730Z 22012G17KT 33/11 A3003 RMK A01 T03260105  RH  027%=      5-min Rain = 0
KMNS 251735Z 21013KT 33/10 A3002 RMK A01 T03260102  RH  026%=      5-min Rain = 0
KMNS 251740Z 20013G18KT 33/10 A3002 RMK A01 T03280099  RH  025%=      5-min Rain = 0
KMNS 251745Z 21011KT 33/10 A3002 RMK A01 T03280096  RH  025%=      5-min Rain = 0
KMNS 251750Z 21012G17KT 34/09 A3002 RMK A01 T03360090  RH  023%=      5-min Rain = 0
KMNS 251755Z 21012G18KT 33/09 A3002 RMK A01 T03330090  RH  023%=      5-min Rain = 0
KMNS 251800Z 21012KT 34/08 A3002 RMK A01 T03370082  RH  021%=      5-min Rain = 0
KMNS 251805Z 19011KT 34/08 A3002 RMK A01 T03400078  RH  020%=      5-min Rain = 0
KMNS 251810Z 20011G17KT 34/07 A3002 RMK A01 T03400069  RH  019%=      5-min Rain = 0
KMNS 251815Z 22012KT 34/06 A3002 RMK A01 T03400059  RH  018%=      5-min Rain = 0
KMNS 251820Z 20011KT 34/05 A3002 RMK A01 T03440046  RH  016%=      5-min Rain = 0
KMNS 251825Z 19011KT 34/06 A3001 RMK A01 T03430058  RH  018%=      5-min Rain = 0
KMNS 251830Z 17012G19KT 34/04 A3001 RMK A01 T03430036  RH  015%=      5-min Rain = 0
KMNS 251835Z 18012G18KT 35/04 A3001 RMK A01 T03450044  RH  016%=      5-min Rain = 0
KMNS 251840Z 21011KT 35/04 A3001 RMK A01 T03460036  RH  015%=      5-min Rain = 0
KMNS 251845Z 21011KT 35/04 A3001 RMK A01 T03490043  RH  015%=      5-min Rain = 0
KMNS 251850Z 18011G17KT 35/04 A3001 RMK A01 T03460039  RH  015%=      5-min Rain = 0
KMNS 251855Z 16009G14KT 35/03 A3001 RMK A01 T03470031  RH  014%=      5-min Rain = 0
KMNS 251900Z 17011KT 35/04 A3001 RMK A01 T03480039  RH  015%=      5-min Rain = 0
KMNS 251905Z 19013G18KT 35/03 A30 RMK A01 T03530026  RH  013%=      5-min Rain = 0
KMNS 251910Z 21008G14KT 35/02 A30 RMK A01 T03520016  RH  012%=      5-min Rain = 0
KMNS 251915Z 19009G17KT 35/02 A30 RMK A01 T03530017  RH  012%=      5-min Rain = 0
KMNS 251920Z 15006G11KT 35/02 A30 RMK A01 T03540020  RH  012%=      5-min Rain = 0
KMNS 251925Z 20010G19KT 36/02 A30 RMK A01 T03570020  RH  012%=      5-min Rain = 0
KMNS 251930Z 17011G19KT 36/02 A30 RMK A01 T03580017  RH  012%=      5-min Rain = 0
KMNS 251935Z 18009KT 36/01 A30 RMK A01 T03570011  RH  012%=      5-min Rain = 0
KMNS 251940Z 19011G17KT 36/01 A30 RMK A01 T03580010  RH  011%=      5-min Rain = 0
KMNS 251945Z 17011G19KT 36/01 A2999 RMK A01 T03570008  RH  011%=      5-min Rain = 0
KMNS 251950Z 18008KT 36/01 A2999 RMK A01 T03570007  RH  011%=      5-min Rain = 0
KMNS 251955Z 18009G21KT 36/01 A2999 RMK A01 T03560012  RH  012%=      5-min Rain = 0
KMNS 252000Z 20013G19KT 36/01 A2999 RMK A01 T03620010  RH  011%=      5-min Rain = 0
KMNS 252005Z 21008G15KT 36/00 A2999 RMK A01 T036100-0  RH  010%=      5-min Rain = 0
KMNS 252010Z 19010G18KT 36/M01 A2998 RMK A01 T03571005  RH  010%=      5-min Rain = 0
KMNS 252015Z 17007G12KT 36/01 A2998 RMK A01 T03600005  RH  011%=      5-min Rain = 0
KMNS 252020Z 18012G17KT 36/00 A2998 RMK A01 T03620002  RH  010%=      5-min Rain = 0
KMNS 252025Z 19008G15KT 36/M00 A2998 RMK A01 T03621003  RH  010%=      5-min Rain = 0
KMNS 252030Z 19002KT 36/M01 A2998 RMK A01 T03601008  RH  010%=      5-min Rain = 0
KMNS 252035Z 18012G17KT 36/M00 A2997 RMK A01 T03591001  RH  010%=      5-min Rain = 0
KMNS 252040Z 18012G20KT 36/M00 A2997 RMK A01 T03611003  RH  010%=      5-min Rain = 0
KMNS 252045Z 17010G15KT 36/M01 A2997 RMK A01 T03591005  RH  010%=      5-min Rain = 0
KMNS 252050Z 16011G17KT 37/M00 A2997 RMK A01 T03661003  RH  010%=      5-min Rain = 0
KMNS 252055Z 16010G15KT 36/M00 A2997 RMK A01 T03641004  RH  010%=      5-min Rain = 0
KMNS 252100Z 15013G21KT 36/M01 A2997 RMK A01 T03641008  RH  010%=      5-min Rain = 0
KMNS 252105Z 13005G11KT 36/M01 A2997 RMK A01 T03601009  RH  010%=      5-min Rain = 0
KMNS 252110Z 19011G19KT 36/M01 A2997 RMK A01 T03631007  RH  010%=      5-min Rain = 0
KMNS 252115Z 19009G14KT 36/M02 A2997 RMK A01 T03591015  RH  009%=      5-min Rain = 0
KMNS 252120Z 18010G18KT 36/M00 A2996 RMK A01 T03641002  RH  010%=      5-min Rain = 0
KMNS 252125Z 19014G24KT 36/M01 A2996 RMK A01 T03611010  RH  010%=      5-min Rain = 0
KMNS 252130Z 18014G22KT 36/M01 A2996 RMK A01 T03591012  RH  010%=      5-min Rain = 0
KMNS 252135Z 15010G15KT 36/M01 A2996 RMK A01 T03601014  RH  009%=      5-min Rain = 0
KMNS 252140Z 18010G18KT 36/M02 A2996 RMK A01 T03591015  RH  009%=      5-min Rain = 0
KMNS 252145Z 17009G14KT 36/M01 A2996 RMK A01 T03591012  RH  010%=      5-min Rain = 0
KMNS 252150Z 18008G15KT 36/M01 A2995 RMK A01 T03611007  RH  010%=      5-min Rain = 0
KMNS 252155Z 18011KT 36/M00 A2995 RMK A01 T03641002  RH  010%=      5-min Rain = 0
KMNS 252200Z 15013G20KT 36/M01 A2995 RMK A01 T03631007  RH  010%=      5-min Rain = 0
KMNS 252205Z 17011G17KT 36/M01 A2995 RMK A01 T03641005  RH  010%=      5-min Rain = 0
KMNS 252210Z 19015KT 36/M02 A2995 RMK A01 T03631015  RH  009%=      5-min Rain = 0
KMNS 252215Z 21010KT 36/M02 A2995 RMK A01 T03601016  RH  009%=      5-min Rain = 0
KMNS 252220Z 18010G16KT 36/M01 A2995 RMK A01 T03611014  RH  009%=      5-min Rain = 0
KMNS 252225Z 19008G15KT 36/M01 A2994 RMK A01 T03601010  RH  010%=      5-min Rain = 0
KMNS 252230Z 18012G20KT 36/M00 A2994 RMK A01 T03621003  RH  010%=      5-min Rain = 0
KMNS 252235Z 17011KT 36/M01 A2994 RMK A01 T03601009  RH  010%=      5-min Rain = 0
KMNS 252240Z 19010G15KT 36/M01 A2994 RMK A01 T03601005  RH  010%=      5-min Rain = 0
KMNS 252245Z 17013G19KT 36/M00 A2994 RMK A01 T03591001  RH  010%=      5-min Rain = 0
KMNS 252250Z 17009G16KT 36/00 A2994 RMK A01 T03590003  RH  011%=      5-min Rain = 0
KMNS 252255Z 18013KT 36/00 A2994 RMK A01 T03590002  RH  011%=      5-min Rain = 0
KMNS 252300Z 16012G17KT 36/00 A2994 RMK A01 T03580001  RH  011%=      5-min Rain = 0
KMNS 252305Z 16014G21KT 36/00 A2994 RMK A01 T03570002  RH  011%=      5-min Rain = 0
KMNS 252310Z 16011G19KT 36/01 A2994 RMK A01 T03560006  RH  011%=      5-min Rain = 0
KMNS 252315Z 15012KT 36/01 A2994 RMK A01 T03550007  RH  011%=      5-min Rain = 0
KMNS 252320Z 18011G18KT 36/00 A2994 RMK A01 T03560001  RH  011%=      5-min Rain = 0
KMNS 252325Z 15012G19KT 36/01 A2993 RMK A01 T03560006  RH  011%=      5-min Rain = 0
KMNS 252330Z 19013G19KT 36/01 A2993 RMK A01 T03570006  RH  011%=      5-min Rain = 0
KMNS 252335Z 19014KT 35/00 A2993 RMK A01 T03530000  RH  011%=      5-min Rain = 0
KMNS 252340Z 18010G18KT 35/01 A2993 RMK A01 T03540009  RH  012%=      5-min Rain = 0
KMNS 252345Z 16013G18KT 35/02 A2993 RMK A01 T03520024  RH  013%=      5-min Rain = 0
KMNS 252350Z 16015G22KT 35/01 A2993 RMK A01 T03520009  RH  012%=      5-min Rain = 0
KMNS 252355Z 17008KT 35/01 A2993 RMK A01 T03530013  RH  012%=      5-min Rain = 0
KMNS 260000Z 17017G28KT 35/05 A2993 RMK A01 T03490052  RH  016%=      5-min Rain = 0
KMNS 260005Z 17019G25KT 34/06 A2993 RMK A01 T03420059  RH  018%=      5-min Rain = 0
KMNS 260010Z 16017G25KT 34/06 A2993 RMK A01 T03410062  RH  018%=      5-min Rain = 0
KMNS 260015Z 16017G24KT 34/06 A2993 RMK A01 T03390060  RH  018%=      5-min Rain = 0
KMNS 260020Z 17016G21KT 34/06 A2993 RMK A01 T03380058  RH  018%=      5-min Rain = 0
KMNS 260025Z 17015KT 34/06 A2992 RMK A01 T03380059  RH  018%=      5-min Rain = 0
KMNS 260030Z 17018G23KT 34/06 A2992 RMK A01 T03370055  RH  018%=      5-min Rain = 0
KMNS 260035Z 16016G21KT 34/06 A2992 RMK A01 T03350056  RH  018%=      5-min Rain = 0
KMNS 260040Z 16016G22KT 33/06 A2992 RMK A01 T03340059  RH  018%=      5-min Rain = 0
KMNS 260045Z 16015G20KT 33/06 A2993 RMK A01 T03330060  RH  019%=      5-min Rain = 0
KMNS 260050Z 16018G24KT 33/06 A2993 RMK A01 T03320058  RH  018%=      5-min Rain = 0
KMNS 260055Z 16017G25KT 33/06 A2993 RMK A01 T03310059  RH  019%=      5-min Rain = 0
KMNS 260100Z 17016G23KT 33/06 A2993 RMK A01 T03300058  RH  019%=      5-min Rain = 0
KMNS 260105Z 16015G22KT 33/06 A2993 RMK A01 T03290058  RH  019%=      5-min Rain = 0
KMNS 260110Z 16014G20KT 33/06 A2994 RMK A01 T03270060  RH  019%=      5-min Rain = 0
KMNS 260115Z 16015G22KT 33/06 A2994 RMK A01 T03250064  RH  020%=      5-min Rain = 0
KMNS 260120Z 15017G24KT 32/06 A2994 RMK A01 T03230064  RH  020%=      5-min Rain = 0
KMNS 260125Z 15016G22KT 32/07 A2994 RMK A01 T03210065  RH  021%=      5-min Rain = 0
KMNS 260130Z 15016G22KT 32/07 A2995 RMK A01 T03200065  RH  021%=      5-min Rain = 0
KMNS 260135Z 15014KT 32/07 A2995 RMK A01 T03170069  RH  022%=      5-min Rain = 0
KMNS 260140Z 15018G23KT 32/07 A2995 RMK A01 T03160074  RH  023%=      5-min Rain = 0
KMNS 260145Z 15019G26KT 31/09 A2995 RMK A01 T03130091  RH  026%=      5-min Rain = 0
KMNS 260150Z 15021G28KT 31/10 A2995 RMK A01 T03100098  RH  028%=      5-min Rain = 0
KMNS 260155Z 15018G27KT 31/10 A2996 RMK A01 T03080101  RH  029%=      5-min Rain = 0
KMNS 260200Z 14017G26KT 31/10 A2996 RMK A01 T03050103  RH  030%=      5-min Rain = 0
KMNS 260205Z 15019G25KT 30/10 A2996 RMK A01 T03040103  RH  030%=      5-min Rain = 0
KMNS 260210Z 14017G26KT 30/10 A2996 RMK A01 T03030103  RH  030%=      5-min Rain = 0
KMNS 260215Z 14016G21KT 30/11 A2997 RMK A01 T02990106  RH  031%=      5-min Rain = 0
KMNS 260220Z 14016G23KT 30/11 A2997 RMK A01 T02980108  RH  032%=      5-min Rain = 0
KMNS 260225Z 14017G24KT 30/11 A2998 RMK A01 T02960113  RH  033%=      5-min Rain = 0
KMNS 260230Z 13016G21KT 29/12 A2998 RMK A01 T02930117  RH  035%=      5-min Rain = 0
KMNS 260235Z 13018G27KT 29/13 A2998 RMK A01 T02900126  RH  038%=      5-min Rain = 0
KMNS 260240Z 13018G26KT 29/13 A2999 RMK A01 T02870131  RH  040%=      5-min Rain = 0
KMNS 260245Z 13020G28KT 29/13 A2999 RMK A01 T02860132  RH  040%=      5-min Rain = 0
KMNS 260250Z 13019G25KT 28/13 A30 RMK A01 T02840132  RH  041%=      5-min Rain = 0
KMNS 260255Z 13020G29KT 28/13 A30 RMK A01 T02810134  RH  042%=      5-min Rain = 0
KMNS 260300Z 13019G25KT 28/13 A3001 RMK A01 T02790134  RH  043%=      5-min Rain = 0
KMNS 260305Z 13020G27KT 28/13 A3001 RMK A01 T02790134  RH  043%=      5-min Rain = 0
KMNS 260310Z 13020G28KT 28/14 A3002 RMK A01 T02780135  RH  043%=      5-min Rain = 0
KMNS 260315Z 13020G28KT 28/14 A3002 RMK A01 T02770136  RH  044%=      5-min Rain = 0
KMNS 260320Z 13020G25KT 28/14 A3003 RMK A01 T02760138  RH  045%=      5-min Rain = 0
KMNS 260325Z 13019G26KT 27/14 A3004 RMK A01 T02740140  RH  045%=      5-min Rain = 0
KMNS 260330Z 12019G24KT 27/14 A3005 RMK A01 T02730141  RH  046%=      5-min Rain = 0
KMNS 260335Z 12019G26KT 27/14 A3005 RMK A01 T02710143  RH  047%=      5-min Rain = 0
KMNS 260340Z 12021G26KT 27/14 A3006 RMK A01 T02710144  RH  048%=      5-min Rain = 0
KMNS 260345Z 12021G29KT 27/15 A3007 RMK A01 T02710145  RH  048%=      5-min Rain = 0
KMNS 260350Z 11018G24KT 27/14 A3007 RMK A01 T02700144  RH  048%=      5-min Rain = 0
KMNS 260355Z 10018G23KT 27/15 A3008 RMK A01 T02680145  RH  049%=      5-min Rain = 0
KMNS 260400Z 10019G24KT 27/15 A3008 RMK A01 T02670146  RH  049%=      5-min Rain = 0
KMNS 260405Z 10019KT 27/15 A3009 RMK A01 T02660146  RH  050%=      5-min Rain = 0
KMNS 260410Z 10019G24KT 27/15 A3009 RMK A01 T02650146  RH  050%=      5-min Rain = 0
KMNS 260415Z 10021G27KT 26/15 A3009 RMK A01 T02630147  RH  051%=      5-min Rain = 0
KMNS 260420Z 10022G30KT 26/15 A3009 RMK A01 T02610145  RH  051%=      5-min Rain = 0
KMNS 260425Z 11021G28KT 26/14 A3009 RMK A01 T02580140  RH  050%=      5-min Rain = 0
KMNS 260430Z 10021G26KT 25/13 A3009 RMK A01 T02450129  RH  050%=      5-min Rain = 0
KMNS 260435Z 10024G29KT 24/13 A3009 RMK A01 T02390127  RH  051%=      5-min Rain = 0
KMNS 260440Z 10024G32KT 24/13 A3009 RMK A01 T02360126  RH  052%=      5-min Rain = 0
KMNS 260445Z 10022G29KT 24/13 A301 RMK A01 T02350127  RH  053%=      5-min Rain = 0
KMNS 260450Z 09025G31KT 23/13 A301 RMK A01 T02330130  RH  054%=      5-min Rain = 0
KMNS 260455Z 09021KT 23/13 A301 RMK A01 T02290134  RH  057%=      5-min Rain = 0

Page generated in 0.0094 seconds.